ADDS METAR Data INFO
IDs: Format: Raw Decoded Include TAF

Data at: 0152 UTC 25 Feb 2018

KGGG 250112Z 29005KT 8SM R13/6000VP6000FT +RA OVC030 14/14 A2993 RMK AO2 P0010 T01390139
KGGG 250034Z 31005KT 10SM -TSRA BKN021 OVC027 14/14 A2990 RMK AO2 LTG DSNT SW TSB28 P0007 T01390139
KGGG 242353Z 32006KT 8SM RA BKN021 OVC027 14/14 A2988 RMK AO2 RAE2255B11 SLP117 P0018 60115 T01440144 10233 20144 53034
KGGG 242253Z 32013KT 10SM -RA SCT008 OVC014 16/16 A2985 RMK AO2 WSHFT 2140 TSE2156B2157E12 SLP105 P0058 T01610161
KGGG 242219Z 27010KT 3SM -RA BR BKN005 BKN013 OVC050 21/21 A2982 RMK AO2 WSHFT 2140 LTG DSNT NE TSE2156B2157E12 P0037 T02060206
KGGG 242212Z 26009G21KT 3SM R13/3500VP6000FT VCTS RA BR FEW005 BKN013 OVC050 20/20 A2982 RMK AO2 WSHFT 2140 LTG DSNT NE TSE2156B2157E12 P0037 T02000200
KGGG 242210Z 25011G21KT 1 3/4SM R13/3000VP6000FT -TSRA BR FEW008 BKN013 OVC050 20/20 A2981 RMK AO2 WSHFT 2140 VIS 3/4V5 LTG DSNT NE TSE2156B2157 P0036 T02000200
KGGG 242157Z 25010G21KT 1SM R13/3500VP6000FT +TSRA BR FEW006 BKN017 OVC049 20/20 A2977 RMK AO2 WSHFT 2140 LTG DSNT NE AND SW TSE56B57 P0011 T02000200
KGGG 242155Z 25009G21KT 1 1/4SM R13/3500VP6000FT +TSRA BR SCT017 BKN024 OVC049 20/20 A2979 RMK AO2 WSHFT 2140 LTG DSNT NE AND SW P0006 T02000200
KGGG 242153Z 26014G21KT 2SM R13/3500VP6000FT +TSRA BR SCT018 BKN024 OVC049 21/20 A2981 RMK AO2 WSHFT 2136 LTG DSNT SW RAB2058 TSB41 PRESRR SLP090 P0037 T02060200
KGGG 242140Z 18012KT 2SM VCTS -RA BR BKN028 OVC080 22/21 A2978 RMK AO2 LTG DSNT N RAB2058 P0005 T02170206
KGGG 242131Z 19015KT 2SM -RA BR BKN028 OVC080 22/21 A2978 RMK AO2 LTG DSNT N AND W RAB2058 P0003 T02220206
KGGG 242053Z 19018KT 10SM BKN028 BKN080 23/20 A2978 RMK AO2 PK WND 18032/2029 LTG DSNT W AND NW RAE05 SLP081 P0000 60002 T02280200 58023
KGGG 241953Z 18014G25KT 10SM -RA SCT021 SCT043 BKN100 23/22 A2980 RMK AO2 RAE10B49 SLP087 P0000 T02280217
KGGG 241853Z 18014G21KT 4SM -RA BR SCT038 BKN080 OVC110 21/21 A2985 RMK AO2 SLP103 P0002 T02110211
KGGG 241849Z 18012G21KT 5SM -RA BR FEW040 BKN080 OVC110 21/21 A2985 RMK AO2 P0002
KGGG 241801Z 19013KT 4SM -RA BR BKN026 OVC050 21/21 A2987 RMK AO2 P0000 T02110206
KGGG 241753Z COR 19014G19KT 4SM -RA BR BKN026 OVC050 21/21 A2988 RMK AO2 RAB1659 SLP115 P0005 60005 T02110206 10228 20200 50002
KGGG 241653Z 19014G23KT 10SM BKN023 OVC030 23/20 A2989 RMK AO2 RAB39E48 SLP116 P0000 T02280200
KGGG 241553Z 19015G21KT 10SM OVC021 22/21 A2988 RMK AO2 RAB14E24 SLP114 P0000 T02220206
KGGG 241453Z 17013G20KT 7SM BKN017 OVC023 22/21 A2988 RMK AO2 SLP112 60000 T02170206 58021
KGGG 241353Z 17011G18KT 7SM BKN013 OVC020 21/21 A2990 RMK AO2 RAB23E48 SLP122 P0000 T02110211
KGGG 241253Z 17008KT 7SM OVC013 21/21 A2992 RMK AO2 SLP128 T02060206
KGGG 241153Z 17005KT 10SM OVC012 20/20 A2994 RMK AO2 SLP133 60000 70001 T02000200 10200 20172 57009
KGGG 241053Z AUTO 17005KT 10SM OVC011 20/20 A2995 RMK AO2 SLP136 T02000200
KGGG 240953Z AUTO 18006KT 10SM OVC011 19/19 A2995 RMK AO2 SLP138 T01940194
KGGG 240907Z AUTO 16006KT 10SM BKN014 BKN021 OVC065 19/19 A2996 RMK AO2 T01940194
KGGG 240853Z AUTO 15006KT 10SM SCT015 BKN021 OVC065 19/19 A2997 RMK AO2 RAB34E45 SLP143 P0000 60000 T01940194 58017
KGGG 240846Z AUTO 16006KT 10SM BKN015 BKN023 OVC065 19/19 A2997 RMK AO2 RAB34E45 P0000 T01940194
KGGG 240831Z AUTO 17006KT 10SM SCT015 SCT049 OVC065 19/19 A2998 RMK AO2 T01890189
KGGG 240753Z AUTO 18007KT 10SM BKN018 BKN023 OVC065 19/19 A2999 RMK AO2 SLP151 T01940194
KGGG 240732Z AUTO 18007KT 10SM FEW016 OVC065 19/19 A3000 RMK AO2 T01890189
KGGG 240653Z AUTO 19008KT 10SM BKN016 BKN060 19/19 A3001 RMK AO2 SLP157 T01890189
KGGG 240553Z AUTO 18005KT 10SM BKN016 17/17 A3002 RMK AO2 SLP162 60000 T01720172 10217 20172 402440094 58005
KGGG 240453Z AUTO 18008KT 10SM SCT085 19/18 A3002 RMK AO2 SLP164 T01890178
KGGG 240353Z AUTO 17007KT 10SM CLR 18/17 A3003 RMK AO2 SLP167 T01830172
KGGG 240253Z 15005KT 10SM CLR 18/18 A3003 RMK AO2 SLP169 60000 T01780178 55002
KGGG 240153Z 10003KT 10SM CLR 19/19 A3003 RMK AO2 RAE06 SLP168 P0000 T01890189
KGGG 240053Z 00000KT 10SM -RA FEW055 19/19 A3003 RMK AO2 RAB34 SLP169 P0000 T01940194
KGGG 232353Z 10004KT 10SM SCT055 22/20 A3004 RMK AO2 SLP170 T02170200 10244 20150 56012
KGGG 232253Z 13005KT 10SM SCT055 23/20 A3004 RMK AO2 SLP171 T02330200
KGGG 232159Z 13005KT 10SM SCT055 24/20 A3006 RMK AO2 T02440200
KGGG 232153Z COR VRB05KT 10SM SCT055 24/20 A3006 RMK AO2 SLP176 T02390200
KGGG 232053Z 17008KT 10SM BKN019 23/19 A3008 RMK AO2 SLP182 T02280194 58026
KGGG 231953Z 17007KT 10SM BKN010 BKN016 21/19 A3012 RMK AO2 SLP198 T02060194
KGGG 231949Z 17007KT 10SM BKN010 21/19 A3012 RMK AO2 CIG 007V013
KGGG 231923Z 14008KT 5SM BR OVC007 19/18 A3014 RMK AO2 T01890183
KGGG 231900Z 14005KT 5SM BR OVC004 17/17 A3015 RMK AO2 T01720172
KGGG 231853Z 15006KT 1SM R13/P6000FT BR OVC003 17/17 A3015 RMK AO2 SLP211 T01670167
KGGG 231810Z 14005KT 1SM R13/P6000FT BR OVC002 16/16 A3017 RMK AO2 T01560156
KGGG 231753Z 10004KT 3/4SM R13/4000VP6000FT BR OVC002 15/15 A3018 RMK AO2 SLP220 60001 T01500150 10150 20111 58024
KGGG 231653Z 11005KT 1/2SM R13/5000VP6000FT FG OVC002 14/14 A3021 RMK AO2 SLP230 T01390139
KGGG 231637Z 09006KT 3/4SM R13/P6000FT BR OVC002 13/13 A3022 RMK AO2 T01330133
KGGG 231553Z 10006KT 1SM R13/P6000FT BR OVC003 12/12 A3024 RMK AO2 RAB01E29 SLP240 P0001 T01220122
KGGG 231453Z 03004KT 1SM R13/P6000FT BR OVC003 12/12 A3025 RMK AO2 SLP245 T01170117 51017
KGGG 231353Z 34004KT 1SM R13/P6000FT BR OVC002 11/11 A3024 RMK AO2 SLP240 T01110111